Time;durP1;ratioP1;P1;durP2;ratioP2;P2;SDS_P1;SDS_P2;PMS_P1;PMS_P2;Temp;Humidity;BMP_temperature;BMP_pressure;BME280_temperature;BME280_humidity;BME280_pressure;Samples;Min_cycle;Max_cycle;Signal;HPM_P1;HPM_P2
2021/04/09 00:01:00;;;;;;;3.47;2.65;;;;;;;23.11;19.39;96497.19;5070585;28;20058;-55
2021/04/09 00:03:25;;;;;;;3.75;2.85;;;;;;;23.13;19.53;96489.50;5069307;28;20369;-55
2021/04/09 00:05:51;;;;;;;3.50;2.72;;;;;;;23.16;19.67;96492.47;5069101;28;20074;-58
2021/04/09 00:08:16;;;;;;;3.80;2.90;;;;;;;23.19;19.28;96500.03;5069474;28;20136;-65
2021/04/09 00:10:42;;;;;;;2.80;2.55;;;;;;;23.21;19.10;96495.09;5068961;28;20592;-64
2021/04/09 00:13:08;;;;;;;3.30;2.47;;;;;;;23.24;19.38;96488.25;5068619;28;20052;-64
2021/04/09 00:15:33;;;;;;;3.13;2.47;;;;;;;23.27;19.51;96490.38;5068740;28;20043;-63
2021/04/09 00:18:00;;;;;;;3.60;2.70;;;;;;;23.30;19.29;96486.22;5069989;28;20448;-62
2021/04/09 00:20:26;;;;;;;3.22;2.45;;;;;;;23.33;19.36;96482.91;5069470;28;20598;-64
2021/04/09 00:22:51;;;;;;;3.45;2.10;;;;;;;23.35;19.39;96486.16;5068844;28;20044;-65
2021/04/09 00:25:17;;;;;;;3.35;2.47;;;;;;;23.37;19.33;96490.19;5069439;28;20522;-64
2021/04/09 00:27:43;;;;;;;2.13;1.92;;;;;;;23.39;19.32;96484.44;5067852;28;20533;-65
2021/04/09 00:30:10;;;;;;;5.18;1.85;;;;;;;23.41;19.18;96490.41;5068820;28;20048;-60
2021/04/09 00:32:36;;;;;;;2.70;2.13;;;;;;;23.43;18.89;96482.72;5068715;28;20048;-65
2021/04/09 00:35:02;;;;;;;2.40;1.95;;;;;;;23.44;18.97;96482.41;5068694;28;20072;-64
2021/04/09 00:37:28;;;;;;;2.70;2.22;;;;;;;23.47;19.43;96476.34;5069393;28;20052;-64
2021/04/09 00:39:53;;;;;;;2.28;2.05;;;;;;;23.49;19.07;96484.28;5068815;28;20048;-65
2021/04/09 00:42:20;;;;;;;2.28;2.05;;;;;;;23.51;19.02;96483.94;5068622;28;20049;-64
2021/04/09 00:44:46;;;;;;;3.55;2.00;;;;;;;23.53;19.05;96484.47;5068672;28;20504;-64
2021/04/09 00:47:20;;;;;;;1.77;1.65;;;;;;;23.54;18.90;96472.44;5068163;28;20043;-65
2021/04/09 00:49:53;;;;;;;1.77;1.40;;;;;;;23.56;19.21;96479.22;5068842;28;20048;-68
2021/04/09 00:52:34;;;;;;;2.30;1.40;;;;;;;23.58;19.03;96479.72;5068722;28;20569;-66
2021/04/09 00:55:04;;;;;;;1.52;1.40;;;;;;;23.60;19.05;96476.69;5068847;28;20080;-66
2021/04/09 00:57:41;;;;;;;2.22;1.80;;;;;;;23.62;19.03;96479.94;5068758;28;20571;-66
2021/04/09 01:00:12;;;;;;;2.55;1.63;;;;;;;23.64;19.04;96473.06;5068553;28;20060;-64
2021/04/09 01:02:38;;;;;;;1.30;1.20;;;;;;;23.67;19.22;96471.63;5060639;28;20393;-63
2021/04/09 01:05:08;;;;;;;2.70;1.60;;;;;;;23.71;19.11;96469.91;5048051;28;20082;-64
2021/04/09 01:07:34;;;;;;;1.88;1.25;;;;;;;23.73;18.99;96462.22;5048369;28;20055;-65
2021/04/09 01:09:59;;;;;;;1.80;1.17;;;;;;;23.74;19.22;96461.13;5049182;28;20040;-65
2021/04/09 01:12:25;;;;;;;1.35;1.25;;;;;;;23.77;19.18;96463.25;5048193;28;20121;-65
2021/04/09 01:14:50;;;;;;;1.98;1.70;;;;;;;23.79;18.89;96460.25;5048567;28;20666;-64
2021/04/09 01:17:26;;;;;;;1.40;1.23;;;;;;;23.80;18.91;96465.41;5048294;28;20509;-64
2021/04/09 01:20:29;;;;;;;2.38;1.52;;;;;;;23.82;19.25;96459.63;5047684;28;20048;-65
2021/04/09 01:23:19;;;;;;;1.75;1.27;;;;;;;23.84;19.01;96462.88;5048180;28;21013;-65
2021/04/09 01:26:22;;;;;;;2.20;1.48;;;;;;;23.85;18.94;96472.69;5048283;28;20132;-65
2021/04/09 01:29:13;;;;;;;2.17;1.30;;;;;;;23.84;18.85;96469.16;5047913;28;20111;-64
2021/04/09 01:31:45;;;;;;;1.98;1.27;;;;;;;23.87;18.93;96475.94;5047154;28;20071;-65
2021/04/09 01:34:11;;;;;;;1.45;1.10;;;;;;;23.89;18.98;96461.97;5048297;28;20079;-64
2021/04/09 01:36:42;;;;;;;3.13;1.58;;;;;;;23.88;18.98;96463.88;5048334;28;20496;-65
2021/04/09 01:39:13;;;;;;;1.25;1.13;;;;;;;23.90;18.97;96461.66;5066579;28;20508;-60
2021/04/09 01:41:39;;;;;;;1.92;1.30;;;;;;;23.92;18.96;96467.63;5066676;28;20067;-65
2021/04/09 01:44:05;;;;;;;2.60;1.40;;;;;;;23.92;18.96;96461.34;5066584;28;20408;-64
2021/04/09 01:46:32;;;;;;;1.77;1.23;;;;;;;23.92;19.04;96470.38;5066883;28;20052;-65
2021/04/09 01:48:58;;;;;;;1.33;1.23;;;;;;;23.91;18.89;96460.56;5067308;28;20178;-64
2021/04/09 01:51:23;;;;;;;1.38;1.17;;;;;;;23.93;19.02;96457.50;5066365;28;20151;-65
2021/04/09 01:53:49;;;;;;;1.58;1.38;;;;;;;23.94;19.16;96465.41;5066022;28;20496;-64
2021/04/09 01:56:16;;;;;;;1.30;1.20;;;;;;;23.92;19.15;96453.16;5067829;28;20075;-65
2021/04/09 01:58:42;;;;;;;1.55;1.45;;;;;;;23.92;18.97;96445.75;5066217;28;20098;-65
2021/04/09 02:01:11;;;;;;;1.73;1.20;;;;;;;23.92;19.17;96444.94;5066138;28;20130;-65
2021/04/09 02:03:38;;;;;;;2.35;0.98;;;;;;;23.91;18.84;96451.50;5066309;28;20049;-65
2021/04/09 02:06:03;;;;;;;1.63;1.02;;;;;;;23.90;19.10;96450.72;5066682;28;20516;-65
2021/04/09 02:08:30;;;;;;;1.58;1.00;;;;;;;23.89;18.95;96445.56;5067600;28;20041;-65
2021/04/09 02:10:57;;;;;;;2.15;1.42;;;;;;;23.88;19.20;96452.94;5066133;28;20056;-65
2021/04/09 02:13:24;;;;;;;1.42;1.33;;;;;;;23.87;18.83;96460.34;5049192;28;20040;-65
2021/04/09 02:15:52;;;;;;;1.63;1.20;;;;;;;23.86;19.06;96456.00;5065758;28;20053;-66
2021/04/09 02:18:18;;;;;;;1.17;1.08;;;;;;;23.85;18.92;96457.09;5064945;28;20559;-64
2021/04/09 02:20:43;;;;;;;2.45;1.00;;;;;;;23.84;19.15;96452.75;5067147;28;20052;-65
2021/04/09 02:23:10;;;;;;;0.90;0.90;;;;;;;23.81;19.19;96442.41;5066156;28;20463;-64
2021/04/09 02:25:35;;;;;;;1.40;1.00;;;;;;;23.79;19.05;96462.97;5065611;28;20048;-65
2021/04/09 02:28:01;;;;;;;1.17;1.02;;;;;;;23.80;18.94;96431.75;5065940;28;20105;-64
2021/04/09 02:30:27;;;;;;;1.10;1.00;;;;;;;23.79;18.85;96447.38;5067796;28;20056;-65
2021/04/09 02:32:52;;;;;;;1.33;1.00;;;;;;;23.77;19.17;96435.91;5066521;28;20059;-65
2021/04/09 02:35:18;;;;;;;1.23;1.00;;;;;;;23.76;18.90;96434.31;5066271;28;20071;-65
2021/04/09 02:37:44;;;;;;;0.80;0.80;;;;;;;23.78;19.02;96433.97;5066174;28;20116;-65
2021/04/09 02:40:16;;;;;;;2.28;1.20;;;;;;;23.75;18.96;96421.69;5065163;28;20523;-65
2021/04/09 02:42:44;;;;;;;1.33;1.00;;;;;;;23.73;19.12;96421.19;5066562;28;20052;-65
2021/04/09 02:45:10;;;;;;;1.15;0.60;;;;;;;23.71;19.11;96420.69;5066538;28;20075;-65
2021/04/09 02:47:36;;;;;;;1.45;0.93;;;;;;;23.71;19.01;96417.16;5048867;28;20442;-65
2021/04/09 02:50:14;;;;;;;1.27;0.73;;;;;;;23.66;19.32;96426.25;5065105;28;20056;-65
2021/04/09 02:52:54;;;;;;;1.60;0.88;;;;;;;23.64;19.40;96414.81;5049496;28;20057;-64
2021/04/09 02:55:22;;;;;;;1.58;0.95;;;;;;;23.62;19.18;96417.84;5046993;28;20577;-64
2021/04/09 02:57:48;;;;;;;1.75;0.90;;;;;;;23.61;19.21;96423.63;5046641;28;20049;-65
2021/04/09 03:00:14;;;;;;;1.80;1.10;;;;;;;23.59;19.50;96425.84;5046349;28;20049;-64
2021/04/09 03:02:40;;;;;;;1.52;1.23;;;;;;;23.57;19.06;96428.06;5044953;28;20044;-64
2021/04/09 03:05:09;;;;;;;1.13;1.00;;;;;;;23.55;19.25;96414.72;5045921;28;20076;-65
2021/04/09 03:07:36;;;;;;;1.65;1.15;;;;;;;23.54;19.62;96417.75;5044714;28;20055;-65
2021/04/09 03:10:05;;;;;;;0.93;0.65;;;;;;;23.51;19.38;96401.94;5047433;28;20049;-61
2021/04/09 03:12:31;;;;;;;1.50;0.98;;;;;;;23.50;19.66;96409.31;5065959;28;20078;-62
2021/04/09 03:14:56;;;;;;;1.90;0.85;;;;;;;23.47;19.74;96405.28;5066575;28;20393;-54
2021/04/09 03:17:28;;;;;;;1.42;0.70;;;;;;;23.44;19.47;96408.59;5064476;28;20086;-60
2021/04/09 03:19:54;;;;;;;2.65;0.80;;;;;;;23.42;19.68;96404.56;5066055;28;20491;-62
2021/04/09 03:22:19;;;;;;;1.70;0.85;;;;;;;23.40;19.65;96401.31;5065040;28;20092;-58
2021/04/09 03:24:45;;;;;;;2.00;0.95;;;;;;;23.37;19.51;96399.19;5065752;28;20097;-65
2021/04/09 03:27:14;;;;;;;0.85;0.85;;;;;;;23.34;19.54;96399.78;5064660;28;20504;-65
2021/04/09 03:29:41;;;;;;;1.65;1.00;;;;;;;23.32;19.39;96399.28;5063739;28;20061;-64
2021/04/09 03:32:07;;;;;;;2.63;0.82;;;;;;;23.28;19.55;96388.16;5065950;28;20055;-66
2021/04/09 03:34:32;;;;;;;1.33;0.60;;;;;;;23.26;19.92;96387.66;5064563;28;20068;-65
2021/04/09 03:36:58;;;;;;;0.57;0.57;;;;;;;23.24;19.89;96387.13;5066858;28;20071;-65
2021/04/09 03:39:23;;;;;;;2.97;0.95;;;;;;;23.21;19.77;96379.53;5065699;28;20137;-62
2021/04/09 03:41:50;;;;;;;2.83;1.10;;;;;;;23.19;19.88;96381.75;5065133;28;20061;-62
2021/04/09 03:44:15;;;;;;;2.20;0.98;;;;;;;23.17;19.79;96383.97;5064407;28;20044;-65
2021/04/09 03:46:41;;;;;;;1.67;0.90;;;;;;;23.14;19.85;96381.84;5066206;28;20049;-64
2021/04/09 03:49:06;;;;;;;1.33;0.82;;;;;;;23.12;19.86;96389.53;5065562;28;20048;-65
2021/04/09 03:51:32;;;;;;;0.85;0.60;;;;;;;23.09;19.91;96379.19;5065179;28;20715;-64
2021/04/09 03:53:58;;;;;;;2.03;0.90;;;;;;;23.07;19.90;96382.25;5064933;28;20071;-65
2021/04/09 03:56:23;;;;;;;1.48;0.82;;;;;;;23.04;19.82;96372.69;5064446;28;20045;-64
2021/04/09 03:58:50;;;;;;;1.50;0.68;;;;;;;23.02;19.84;96374.94;5064715;28;20190;-65
2021/04/09 04:01:15;;;;;;;0.73;0.57;;;;;;;23.00;19.72;96360.72;5064424;28;20457;-65
2021/04/09 04:03:41;;;;;;;1.60;0.88;;;;;;;23.00;19.79;96365.38;5065575;28;20040;-65
2021/04/09 04:06:06;;;;;;;2.30;1.20;;;;;;;22.98;19.78;96357.47;5065001;28;20418;-62
2021/04/09 04:08:32;;;;;;;1.88;0.70;;;;;;;22.96;20.04;96356.97;5064683;28;20071;-60
2021/04/09 04:10:58;;;;;;;2.15;0.82;;;;;;;22.97;19.95;96353.13;5065354;28;20087;-64
2021/04/09 04:13:23;;;;;;;2.72;0.95;;;;;;;22.97;19.90;96360.53;5063676;28;20778;-65
2021/04/09 04:15:49;;;;;;;0.57;0.50;;;;;;;22.96;19.89;96364.34;5064836;28;20114;-63
2021/04/09 04:18:15;;;;;;;2.58;0.95;;;;;;;22.95;19.89;96366.28;5065080;28;20123;-64
2021/04/09 04:20:40;;;;;;;1.17;0.50;;;;;;;22.96;19.99;96364.34;5064927;28;20067;-62
2021/04/09 04:23:06;;;;;;;3.10;1.00;;;;;;;22.95;20.19;96365.47;5064694;28;20048;-61
2021/04/09 04:25:32;;;;;;;2.53;0.68;;;;;;;22.94;20.09;96361.91;5064556;28;20083;-66
2021/04/09 04:27:57;;;;;;;1.98;0.70;;;;;;;22.95;20.05;96358.09;5065840;28;20056;-64
2021/04/09 04:30:23;;;;;;;1.60;0.73;;;;;;;22.96;20.09;96356.97;5064778;28;20093;-65
2021/04/09 04:32:48;;;;;;;1.02;0.73;;;;;;;22.97;20.21;96355.06;5065162;28;20443;-65
2021/04/09 04:35:14;;;;;;;0.50;0.50;;;;;;;22.98;19.97;96356.69;5065560;28;20483;-64
2021/04/09 04:37:40;;;;;;;1.60;1.00;;;;;;;23.00;20.10;96360.72;5065415;28;20118;-65
2021/04/09 04:40:06;;;;;;;1.92;0.70;;;;;;;23.01;19.94;96365.13;5065610;28;20512;-65
2021/04/09 04:42:32;;;;;;;1.23;0.95;;;;;;;23.03;19.81;96371.09;5069079;28;20163;-66
2021/04/09 04:44:57;;;;;;;1.85;0.60;;;;;;;23.06;19.81;96369.69;5069788;28;20056;-65
2021/04/09 04:47:23;;;;;;;1.75;0.60;;;;;;;23.08;19.87;96372.91;5068323;28;20465;-62
2021/04/09 04:49:49;;;;;;;1.08;0.52;;;;;;;23.11;19.95;96383.22;5068125;28;20091;-60
2021/04/09 04:52:14;;;;;;;1.77;0.70;;;;;;;23.13;19.95;96391.94;5068189;28;20072;-64
2021/04/09 04:54:40;;;;;;;1.77;0.55;;;;;;;23.17;19.69;96394.91;5067615;28;20088;-63
2021/04/09 04:57:06;;;;;;;0.73;0.60;;;;;;;23.22;19.84;96389.34;5068467;28;20118;-65
2021/04/09 04:59:31;;;;;;;0.80;0.80;;;;;;;23.24;19.87;96393.41;5068801;28;20055;-60
2021/04/09 05:01:57;;;;;;;1.02;0.50;;;;;;;23.28;19.62;96407.28;5069231;28;20131;-62
2021/04/09 05:04:23;;;;;;;0.77;0.40;;;;;;;23.32;19.60;96397.38;5068247;28;20131;-64
2021/04/09 05:06:49;;;;;;;1.20;0.60;;;;;;;23.36;19.70;96395.63;5067636;28;20193;-62
2021/04/09 05:09:15;;;;;;;0.63;0.57;;;;;;;23.41;19.90;96408.41;5068133;28;20147;-62
2021/04/09 05:11:40;;;;;;;1.27;0.40;;;;;;;23.43;19.89;96398.78;5068131;28;20058;-64
2021/04/09 05:14:06;;;;;;;0.73;0.40;;;;;;;23.48;19.62;96415.09;5068231;28;20048;-63
2021/04/09 05:16:31;;;;;;;0.63;0.52;;;;;;;23.52;19.56;96409.03;5068789;28;20075;-65
2021/04/09 05:18:57;;;;;;;0.60;0.50;;;;;;;23.56;19.61;96410.06;5068939;28;20052;-61
2021/04/09 05:21:23;;;;;;;1.05;0.32;;;;;;;23.59;19.54;96415.75;5067804;28;20081;-58
2021/04/09 05:23:48;;;;;;;0.65;0.60;;;;;;;23.62;19.60;96408.84;5067727;28;20054;-63
2021/04/09 05:26:14;;;;;;;0.45;0.30;;;;;;;23.66;19.51;96412.59;5068905;28;20076;-60
2021/04/09 05:28:40;;;;;;;1.33;0.60;;;;;;;23.68;19.33;96413.09;5068033;28;20040;-59
2021/04/09 05:31:05;;;;;;;0.60;0.60;;;;;;;23.71;19.42;96412.47;5068098;28;20076;-64
2021/04/09 05:33:31;;;;;;;1.23;0.52;;;;;;;23.76;19.61;96411.56;5069329;28;20053;-61
2021/04/09 05:35:56;;;;;;;1.27;0.43;;;;;;;23.79;19.33;96413.75;5067953;28;20482;-64
2021/04/09 05:38:22;;;;;;;0.47;0.30;;;;;;;23.81;19.48;96420.53;5067920;28;20246;-59
2021/04/09 05:40:47;;;;;;;0.63;0.40;;;;;;;23.82;19.53;96419.41;5063763;28;20090;-60
2021/04/09 05:43:13;;;;;;;0.45;0.40;;;;;;;23.85;19.30;96410.59;5058473;28;20500;-61
2021/04/09 05:45:39;;;;;;;1.13;0.55;;;;;;;23.87;19.49;96422.03;5047922;28;20540;-59
2021/04/09 05:48:06;;;;;;;0.77;0.55;;;;;;;23.89;19.26;96399.88;5047874;28;20048;-59
2021/04/09 05:50:34;;;;;;;0.60;0.38;;;;;;;23.90;19.29;96412.41;5048088;28;20076;-64
2021/04/09 05:53:00;;;;;;;0.75;0.38;;;;;;;23.92;18.93;96409.38;5049268;28;20430;-59
2021/04/09 05:55:25;;;;;;;1.05;0.50;;;;;;;23.93;18.99;96408.25;5067518;28;20067;-62
2021/04/09 05:57:51;;;;;;;0.40;0.40;;;;;;;23.94;18.81;96409.88;5067656;28;20058;-57
2021/04/09 06:00:17;;;;;;;0.52;0.50;;;;;;;23.95;19.24;96408.75;5067368;28;20422;-61
2021/04/09 06:02:43;;;;;;;0.60;0.57;;;;;;;23.98;19.35;96410.91;5067265;28;20052;-62
2021/04/09 06:05:09;;;;;;;1.45;0.50;;;;;;;23.98;19.27;96408.97;5067041;28;20135;-57
2021/04/09 06:07:35;;;;;;;0.85;0.50;;;;;;;23.99;19.45;96410.59;5067646;28;20484;-57
2021/04/09 06:10:01;;;;;;;0.70;0.35;;;;;;;24.00;19.34;96403.19;5067915;28;20052;-57
2021/04/09 06:12:27;;;;;;;1.33;0.60;;;;;;;24.01;19.39;96410.28;5067260;28;20048;-57
2021/04/09 06:14:52;;;;;;;1.52;0.40;;;;;;;24.01;19.49;96407.53;5065676;28;20055;-58
2021/04/09 06:17:18;;;;;;;3.55;0.88;;;;;;;24.01;19.62;96407.53;5066426;28;20063;-60
2021/04/09 06:19:45;;;;;;;1.88;0.98;;;;;;;24.03;19.49;96411.59;5059102;28;20053;-55
2021/04/09 06:22:10;;;;;;;1.02;0.82;;;;;;;24.05;19.71;96406.63;5046608;28;20114;-58
2021/04/09 06:24:37;;;;;;;1.13;0.93;;;;;;;24.05;19.73;96427.69;5047041;28;20544;-54
2021/04/09 06:27:03;;;;;;;2.15;0.88;;;;;;;24.05;19.42;96427.69;5046357;28;20103;-64
2021/04/09 06:29:29;;;;;;;1.20;0.65;;;;;;;24.05;19.80;96423.06;5047156;28;20512;-59
2021/04/09 06:31:55;;;;;;;2.75;0.50;;;;;;;24.04;19.49;96426.91;5044665;28;20051;-65
2021/04/09 06:34:21;;;;;;;5.63;0.73;;;;;;;24.03;19.48;96430.75;5045508;28;20088;-65
2021/04/09 06:36:46;;;;;;;0.68;0.50;;;;;;;24.03;19.41;96432.66;5049957;28;20073;-61
2021/04/09 06:39:13;;;;;;;2.50;0.50;;;;;;;24.00;19.42;96427.81;5065583;28;20102;-63
2021/04/09 06:41:39;;;;;;;1.60;0.50;;;;;;;23.99;19.63;96427.00;5064898;28;20048;-65
2021/04/09 06:44:05;;;;;;;0.73;0.47;;;;;;;23.97;19.60;96447.56;5065522;28;20141;-64
2021/04/09 06:46:33;;;;;;;0.82;0.50;;;;;;;23.96;19.48;96437.75;5066785;28;20052;-65
2021/04/09 06:48:58;;;;;;;0.55;0.38;;;;;;;23.95;19.66;96434.22;5066062;28;20041;-65
2021/04/09 06:51:24;;;;;;;0.38;0.30;;;;;;;23.93;19.67;96443.81;5065025;28;20052;-65
2021/04/09 06:53:50;;;;;;;0.55;0.47;;;;;;;23.92;19.81;96444.94;5064367;28;20097;-63
2021/04/09 06:56:15;;;;;;;2.25;0.50;;;;;;;23.91;19.59;96456.97;5048690;28;20135;-64
2021/04/09 06:58:45;;;;;;;0.50;0.50;;;;;;;23.89;19.71;96453.78;5066145;28;20098;-60
2021/04/09 07:01:10;;;;;;;0.47;0.30;;;;;;;23.87;19.87;96452.13;5065600;28;20078;-64
2021/04/09 07:03:37;;;;;;;1.60;0.50;;;;;;;23.85;19.75;96442.63;5063486;28;20075;-63
2021/04/09 07:06:03;;;;;;;0.57;0.55;;;;;;;23.83;19.79;96442.91;5052348;28;20052;-60
2021/04/09 07:08:29;;;;;;;0.98;0.40;;;;;;;23.80;19.88;96446.28;5047171;28;20055;-64
2021/04/09 07:10:55;;;;;;;0.43;0.32;;;;;;;23.79;19.78;96441.91;5064853;28;20071;-65
2021/04/09 07:13:20;;;;;;;0.82;0.40;;;;;;;23.76;20.10;96439.78;5066381;28;20048;-64
2021/04/09 07:15:46;;;;;;;2.15;0.60;;;;;;;23.72;19.71;96446.94;5047573;28;20059;-65
2021/04/09 07:18:15;;;;;;;0.57;0.35;;;;;;;23.65;19.98;96458.25;5065087;28;20047;-64
2021/04/09 07:20:40;;;;;;;0.90;0.52;;;;;;;23.61;19.96;96467.38;5055853;28;20505;-63
2021/04/09 07:23:07;;;;;;;1.20;0.30;;;;;;;23.56;19.73;96451.88;5046250;28;20048;-56
2021/04/09 07:25:33;;;;;;;1.35;0.57;;;;;;;23.52;20.16;96458.25;5045623;28;20048;-60
2021/04/09 07:28:14;;;;;;;2.35;0.35;;;;;;;23.45;20.11;96451.25;5046473;28;20049;-57
2021/04/09 07:30:41;;;;;;;2.60;0.60;;;;;;;23.43;20.28;96450.72;5045888;28;20053;-62
2021/04/09 07:33:08;;;;;;;29.95;4.70;;;;;;;23.40;20.31;96454.06;5052620;28;20605;-65
2021/04/09 07:36:09;;;;;;;14.45;2.65;;;;;;;23.34;20.38;96446.25;5054886;28;20520;-66
2021/04/09 07:38:35;;;;;;;13.32;1.83;;;;;;;23.33;20.50;96448.19;5053023;28;20482;-66
2021/04/09 07:41:02;;;;;;;10.88;1.88;;;;;;;23.31;20.33;96438.66;5065987;28;20151;-64
2021/04/09 07:43:33;;;;;;;8.75;1.88;;;;;;;23.28;20.66;96429.16;5066115;28;20396;-63
2021/04/09 07:46:00;;;;;;;7.38;1.27;;;;;;;23.25;20.60;96416.06;5066224;28;20048;-62
2021/04/09 07:48:33;;;;;;;7.07;1.75;;;;;;;23.20;20.67;96429.84;5065304;28;20044;-64
2021/04/09 07:50:59;;;;;;;12.10;1.88;;;;;;;23.16;20.83;96431.53;5062103;28;20067;-63
2021/04/09 07:53:31;;;;;;;7.75;1.55;;;;;;;23.11;20.69;96431.59;5050281;28;20135;-63
2021/04/09 07:56:17;;;;;;;9.48;1.40;;;;;;;23.09;20.61;96422.91;5066248;28;20886;-64
2021/04/09 07:58:43;;;;;;;9.30;1.70;;;;;;;23.06;20.71;96408.72;5065095;28;20044;-64
2021/04/09 08:01:22;;;;;;;5.85;1.33;;;;;;;23.00;20.42;96415.34;5065061;28;20040;-63
2021/04/09 08:03:48;;;;;;;5.45;1.23;;;;;;;22.99;20.62;96426.59;5066170;28;20052;-62
2021/04/09 08:06:20;;;;;;;5.05;0.98;;;;;;;22.96;20.50;96427.19;5065649;28;20126;-63
2021/04/09 08:08:46;;;;;;;4.72;1.00;;;;;;;22.92;20.71;96437.88;5057264;28;20049;-60
2021/04/09 08:11:28;;;;;;;3.67;0.98;;;;;;;22.88;20.60;96420.47;5045598;28;20382;-64
2021/04/09 08:14:10;;;;;;;4.78;0.93;;;;;;;22.84;20.86;96427.63;5044954;28;20566;-64
2021/04/09 08:16:36;;;;;;;5.30;1.10;;;;;;;22.81;20.51;96415.38;5048302;28;20086;-62
2021/04/09 08:19:04;;;;;;;2.25;0.82;;;;;;;22.78;20.50;96416.00;5069002;28;20487;-63
2021/04/09 08:21:31;;;;;;;2.00;0.88;;;;;;;22.75;20.51;96422.03;5069917;28;20131;-60
2021/04/09 08:23:57;;;;;;;3.38;0.80;;;;;;;22.72;20.68;96413.66;5069069;28;20044;-61
2021/04/09 08:26:23;;;;;;;2.25;0.90;;;;;;;22.69;20.84;96408.75;5069435;28;20105;-62
2021/04/09 08:28:49;;;;;;;3.10;0.93;;;;;;;22.65;20.79;96420.28;5069669;28;20132;-64
2021/04/09 08:31:15;;;;;;;2.38;0.82;;;;;;;22.64;20.80;96420.59;5067664;28;20342;-62
2021/04/09 08:33:42;;;;;;;5.32;0.80;;;;;;;22.59;20.89;96421.47;5069318;28;20500;-61
2021/04/09 08:36:07;;;;;;;2.28;0.98;;;;;;;22.56;20.89;96408.41;5067666;28;20403;-62
2021/04/09 08:38:33;;;;;;;2.83;0.93;;;;;;;22.53;20.96;96416.41;5067811;28;20057;-64
2021/04/09 08:40:59;;;;;;;4.13;0.73;;;;;;;22.51;20.88;96410.41;5050603;28;20059;-64
2021/04/09 08:43:25;;;;;;;2.03;0.85;;;;;;;22.46;21.02;96411.28;5065397;28;20790;-63
2021/04/09 08:45:51;;;;;;;2.30;0.80;;;;;;;22.38;21.08;96428.31;5059669;28;20089;-65
2021/04/09 08:48:17;;;;;;;1.83;0.40;;;;;;;22.36;21.10;96425.06;5066301;28;20087;-63
2021/04/09 08:50:43;;;;;;;2.25;0.70;;;;;;;22.32;20.96;96432.22;5066504;28;20171;-57
2021/04/09 08:53:09;;;;;;;2.35;0.80;;;;;;;22.30;21.24;96445.38;5052198;28;20052;-65
2021/04/09 08:55:38;;;;;;;2.90;0.63;;;;;;;22.28;21.40;96444.84;5065633;28;20563;-60
2021/04/09 08:58:17;;;;;;;0.93;0.50;;;;;;;22.24;21.40;96448.16;5068540;28;20048;-61
2021/04/09 09:00:43;;;;;;;1.42;0.60;;;;;;;22.22;21.33;96450.31;5068475;28;20408;-63
2021/04/09 09:03:28;;;;;;;3.42;0.80;;;;;;;22.21;21.66;96450.63;5068818;28;20052;-64
2021/04/09 09:05:54;;;;;;;;;;;;;;;22.19;21.23;96448.19;5067393;28;20442;-64
2021/04/09 09:08:20;;;;;;;2.35;0.52;;;;;;;22.16;21.66;96443.31;5067703;28;20443;-63
2021/04/09 09:10:45;;;;;;;1.92;0.55;;;;;;;22.14;21.74;96450.97;5067296;28;20126;-63
2021/04/09 09:13:14;;;;;;;1.23;0.85;;;;;;;22.13;21.63;96454.00;5067753;28;20541;-65
2021/04/09 09:15:43;;;;;;;2.15;0.50;;;;;;;22.10;21.59;96449.94;5067959;28;20052;-63
2021/04/09 09:18:27;;;;;;;2.50;0.65;;;;;;;22.07;21.78;96453.25;5065872;28;20090;-64
2021/04/09 09:21:08;;;;;;;3.22;1.17;;;;;;;22.06;21.75;96451.63;5061123;28;20075;-65
2021/04/09 09:23:50;;;;;;;12.65;3.17;;;;;;;22.03;22.02;96435.84;5058195;28;20599;-65
2021/04/09 09:26:18;;;;;;;12.68;3.45;;;;;;;22.06;22.06;96438.78;5067324;28;20048;-59
2021/04/09 09:28:47;;;;;;;8.02;2.70;;;;;;;22.05;22.12;96442.63;5067275;28;20062;-59
2021/04/09 09:31:31;;;;;;;9.10;2.60;;;;;;;22.03;22.37;96454.94;5083106;28;20155;-55
2021/04/09 09:34:23;;;;;;;7.50;2.58;;;;;;;22.02;22.46;96436.94;5067509;28;20055;-54
2021/04/09 09:37:20;;;;;;;6.32;2.10;;;;;;;22.03;22.76;96447.56;5066659;28;20425;-54
2021/04/09 09:40:07;;;;;;;7.57;2.60;;;;;;;22.03;22.98;96435.84;5060039;28;20072;-53
2021/04/09 09:42:33;;;;;;;3.50;1.73;;;;;;;22.02;23.05;96436.94;5066501;28;20049;-63
2021/04/09 09:45:09;;;;;;;7.43;1.65;;;;;;;21.97;22.98;96432.38;5067866;28;20420;-64
2021/04/09 09:47:41;;;;;;;3.67;1.90;;;;;;;21.96;22.92;96436.22;5066111;28;20513;-65
2021/04/09 09:52:57;;;;;;;4.32;1.90;;;;;;;21.94;23.19;96451.22;5067201;28;20044;-64
2021/04/09 09:55:43;;;;;;;4.93;1.33;;;;;;;21.91;22.75;96432.72;5064237;28;20327;-56
2021/04/09 09:58:12;;;;;;;4.00;1.10;;;;;;;21.91;23.00;96417.16;5065970;28;20411;-62
2021/04/09 10:00:40;;;;;;;2.85;1.45;;;;;;;21.90;22.91;96406.53;5067540;28;20062;-58
2021/04/09 10:03:12;;;;;;;4.18;1.40;;;;;;;21.88;22.80;96403.28;5066628;28;20091;-64
2021/04/09 10:05:39;;;;;;;5.07;1.40;;;;;;;21.87;22.92;96421.56;5066270;28;20059;-63
2021/04/09 10:08:04;;;;;;;2.25;1.08;;;;;;;21.86;22.76;96401.69;5065977;28;20089;-59
2021/04/09 10:10:40;;;;;;;2.72;1.10;;;;;;;21.85;22.78;96413.69;5067028;28;20040;-64
2021/04/09 10:13:35;;;;;;;3.90;1.10;;;;;;;21.83;22.80;96409.63;5066701;28;20044;-60
2021/04/09 10:16:13;;;;;;;;;;;;;;;21.83;22.66;96406.91;5066055;28;20110;-64
2021/04/09 10:18:40;;;;;;;3.15;1.10;;;;;;;21.81;23.00;96399.00;5066632;28;19948;-64
2021/04/09 10:21:30;;;;;;;1.75;0.90;;;;;;;21.79;22.75;96386.78;5066562;28;20055;-66
2021/04/09 10:24:12;;;;;;;4.95;1.20;;;;;;;21.77;22.83;96406.16;5065834;28;20044;-65
2021/04/09 10:26:49;;;;;;;3.42;1.15;;;;;;;21.78;23.39;96407.78;5066106;28;20098;-62
2021/04/09 10:29:25;;;;;;;1.65;0.85;;;;;;;21.77;23.29;96405.34;5065775;28;20040;-65
2021/04/09 10:31:51;;;;;;;3.15;0.80;;;;;;;21.78;23.68;96412.44;5065702;28;20519;-65
2021/04/09 10:34:35;;;;;;;3.70;1.00;;;;;;;21.76;23.47;96399.09;5066244;28;20048;-64
2021/04/09 10:37:01;;;;;;;4.03;1.13;;;;;;;21.76;23.82;96396.34;5066133;28;20048;-63
2021/04/09 10:39:27;;;;;;;2.05;0.82;;;;;;;21.76;23.64;96392.81;5066825;28;20098;-65
2021/04/09 10:41:56;;;;;;;2.72;1.00;;;;;;;21.74;23.57;96375.94;5066580;28;20437;-63
2021/04/09 10:44:28;;;;;;;4.65;1.15;;;;;;;21.74;23.62;96373.22;5046282;28;20132;-65
2021/04/09 10:46:59;;;;;;;10.07;1.20;;;;;;;21.72;23.72;96381.69;5045961;28;20049;-65
2021/04/09 10:49:26;;;;;;;4.38;1.08;;;;;;;21.73;23.41;96391.50;5046405;28;20076;-64
2021/04/09 10:51:56;;;;;;;3.42;0.95;;;;;;;21.73;23.45;96387.94;5045602;28;20118;-64
2021/04/09 10:54:26;;;;;;;2.70;0.90;;;;;;;21.71;23.57;96379.25;5058726;28;20582;-54
2021/04/09 10:56:56;;;;;;;5.25;0.88;;;;;;;21.71;23.64;96373.78;5064591;28;20107;-64
2021/04/09 10:59:29;;;;;;;3.20;0.80;;;;;;;21.68;23.78;96372.47;5064510;28;20064;-64
2021/04/09 11:01:55;;;;;;;5.60;0.70;;;;;;;21.68;23.70;96374.38;5062751;28;20056;-62
2021/04/09 11:04:20;;;;;;;2.08;0.80;;;;;;;21.66;23.46;96374.66;5065631;28;20095;-63
2021/04/09 11:06:54;;;;;;;1.40;0.70;;;;;;;21.62;23.63;96379.88;5064240;28;20539;-64
2021/04/09 11:09:19;;;;;;;1.35;0.50;;;;;;;21.63;23.76;96388.88;5064575;28;20178;-64
2021/04/09 11:11:45;;;;;;;1.65;0.60;;;;;;;21.61;23.58;96375.53;5064570;28;20587;-64
2021/04/09 11:14:14;;;;;;;3.38;0.70;;;;;;;21.59;23.57;96383.19;5065234;28;20105;-60
2021/04/09 11:16:50;;;;;;;1.65;0.60;;;;;;;21.59;23.59;96396.03;5063958;28;20049;-60
2021/04/09 11:19:31;;;;;;;1.00;0.57;;;;;;;21.58;23.52;96399.84;5065063;28;20051;-65
2021/04/09 11:21:57;;;;;;;1.58;0.95;;;;;;;21.57;23.45;96396.31;5064923;28;20060;-63
2021/04/09 11:24:31;;;;;;;3.65;0.70;;;;;;;21.54;23.58;96391.41;5066015;28;20714;-60
2021/04/09 11:26:57;;;;;;;1.50;0.50;;;;;;;21.55;23.57;96390.31;5064961;28;20523;-61
2021/04/09 11:29:31;;;;;;;1.23;0.80;;;;;;;21.52;23.50;96384.63;5065445;28;20303;-63
2021/04/09 11:32:06;;;;;;;0.90;0.50;;;;;;;21.51;23.40;96388.47;5065623;28;20060;-63
2021/04/09 11:34:36;;;;;;;0.50;0.40;;;;;;;21.50;23.38;96395.00;5065717;28;20205;-59
2021/04/09 11:37:01;;;;;;;1.20;0.57;;;;;;;21.49;23.59;96385.22;5065945;28;20071;-62
2021/04/09 11:39:27;;;;;;;2.17;0.60;;;;;;;21.48;23.61;96391.75;5065502;28;20527;-65
2021/04/09 11:42:00;;;;;;;2.08;0.52;;;;;;;21.48;23.68;96383.59;5065445;28;20087;-62
2021/04/09 11:44:36;;;;;;;1.20;0.50;;;;;;;21.45;23.78;96399.41;5045030;28;20051;-65